Time;durP1;ratioP1;P1;durP2;ratioP2;P2;SDS_P1;SDS_P2;PMS_P1;PMS_P2;Temp;Humidity;BMP_temperature;BMP_pressure;BME280_temperature;BME280_humidity;BME280_pressure;Samples;Min_cycle;Max_cycle;Signal;HPM_P1;HPM_P2
2022/04/14 00:00:55;;;;;;;20.52;10.07;;;14.30;37.40;;;;;;5052065;28;34204;-76
2022/04/14 00:03:21;;;;;;;16.63;9.27;;;14.40;37.40;;;;;;5086794;28;34025;-76
2022/04/14 00:05:47;;;;;;;12.32;9.75;;;14.40;37.40;;;;;;5086034;28;34105;-76
2022/04/14 00:08:13;;;;;;;13.95;9.70;;;14.50;37.50;;;;;;5086222;28;34139;-75
2022/04/14 00:10:39;;;;;;;13.90;10.10;;;14.50;37.60;;;;;;5051944;28;34133;-76
2022/04/14 00:13:05;;;;;;;19.25;11.40;;;14.50;37.60;;;;;;5051923;28;34164;-75
2022/04/14 00:15:31;;;;;;;15.85;11.45;;;14.50;37.50;;;;;;5051689;28;35558;-76
2022/04/14 00:17:57;;;;;;;13.90;9.88;;;14.50;37.40;;;;;;5051408;28;34201;-75
2022/04/14 00:20:23;;;;;;;16.67;10.98;;;14.60;37.40;;;;;;5051560;28;34121;-76
2022/04/14 00:22:50;;;;;;;16.08;11.25;;;14.60;37.40;;;;;;5068475;28;34392;-76
2022/04/14 00:25:16;;;;;;;20.63;12.00;;;14.60;37.40;;;;;;5051067;28;35667;-76
2022/04/14 00:27:42;;;;;;;16.88;11.30;;;14.60;37.40;;;;;;5068187;28;34104;-75
2022/04/14 00:30:10;;;;;;;19.65;12.15;;;14.60;37.40;;;;;;5067772;28;34466;-76
2022/04/14 00:32:36;;;;;;;16.88;11.52;;;14.70;37.50;;;;;;5051958;28;34584;-76
2022/04/14 00:35:02;;;;;;;17.67;11.40;;;14.60;37.40;;;;;;5067452;28;35508;-76
2022/04/14 00:37:29;;;;;;;19.60;12.18;;;14.60;37.40;;;;;;5051230;28;34057;-76
2022/04/14 00:39:55;;;;;;;19.30;11.80;;;14.60;37.40;;;;;;5068131;28;34277;-76
2022/04/14 00:42:21;;;;;;;17.67;11.07;;;14.60;37.40;;;;;;5051090;28;34579;-76
2022/04/14 00:44:47;;;;;;;20.88;11.52;;;14.50;37.60;;;;;;5050926;28;35537;-76
2022/04/14 00:47:14;;;;;;;17.70;11.32;;;14.50;37.60;;;;;;5051086;28;34265;-76
2022/04/14 00:49:41;;;;;;;18.65;11.82;;;14.50;37.70;;;;;;5068532;28;34206;-76
2022/04/14 00:52:07;;;;;;;19.02;12.00;;;14.40;37.50;;;;;;5067543;28;34332;-76
2022/04/14 00:54:33;;;;;;;19.02;10.50;;;14.40;37.50;;;;;;5067472;28;36413;-76
2022/04/14 00:57:00;;;;;;;19.13;11.82;;;14.40;37.60;;;;;;5067615;28;35146;-76
2022/04/14 00:59:26;;;;;;;17.08;11.50;;;14.30;37.60;;;;;;5051208;28;34175;-76
2022/04/14 01:01:53;;;;;;;19.02;11.77;;;14.30;37.70;;;;;;5067516;28;34400;-76
2022/04/14 01:04:19;;;;;;;18.60;11.07;;;14.20;37.70;;;;;;5067443;28;36539;-76
2022/04/14 01:06:46;;;;;;;17.35;10.80;;;14.20;37.80;;;;;;5085909;28;34017;-76
2022/04/14 01:09:16;;;;;;;17.13;10.65;;;14.10;37.80;;;;;;5067547;28;34080;-76
2022/04/14 01:11:44;;;;;;;19.02;10.65;;;14.10;37.90;;;;;;5085797;28;34285;-76
2022/04/14 01:14:28;;;;;;;18.77;10.98;;;14.00;37.90;;;;;;5067530;28;34281;-76
2022/04/14 01:16:57;;;;;;;17.55;10.73;;;14.00;38.90;;;;;;5050755;28;34282;-76
2022/04/14 01:19:23;;;;;;;17.95;11.27;;;13.90;38.00;;;;;;5067515;28;34129;-76
2022/04/14 01:22:11;;;;;;;15.00;10.40;;;13.90;38.00;;;;;;5085754;28;34658;-76
2022/04/14 01:24:38;;;;;;;17.27;10.75;;;13.80;39.50;;;;;;5085284;28;35174;-76
2022/04/14 01:27:05;;;;;;;15.45;9.88;;;13.80;38.00;;;;;;5067790;28;34061;-76
2022/04/14 01:29:31;;;;;;;16.67;10.73;;;13.70;38.10;;;;;;5050332;28;34134;-76
2022/04/14 01:31:58;;;;;;;17.25;10.25;;;13.70;38.10;;;;;;5085120;28;34257;-76
2022/04/14 01:34:25;;;;;;;15.80;9.82;;;13.60;38.10;;;;;;5067202;28;35968;-76
2022/04/14 01:36:51;;;;;;;16.92;10.13;;;13.60;38.20;;;;;;5067126;28;34120;-76
2022/04/14 01:39:17;;;;;;;14.65;10.20;;;13.50;38.30;;;;;;5067095;28;33965;-76
2022/04/14 01:41:44;;;;;;;14.15;10.32;;;13.50;38.30;;;;;;5067187;28;34570;-77
2022/04/14 01:44:10;;;;;;;16.42;10.57;;;13.50;38.40;;;;;;5067134;28;35607;-76
2022/04/14 01:46:40;;;;;;;16.48;10.63;;;13.40;38.40;;;;;;5050207;28;34249;-76
2022/04/14 01:49:08;;;;;;;14.88;9.63;;;13.40;38.50;;;;;;5050482;28;34014;-76
2022/04/14 01:51:33;;;;;;;15.73;10.30;;;13.30;38.50;;;;;;5050331;28;34377;-76
2022/04/14 01:53:59;;;;;;;14.52;9.85;;;13.20;38.50;;;;;;5083963;28;34346;-76
2022/04/14 01:56:25;;;;;;;13.40;8.93;;;13.20;38.50;;;;;;5067402;28;34051;-76
2022/04/14 01:58:52;;;;;;;15.80;8.27;;;13.20;38.60;;;;;;5049684;28;34195;-76
2022/04/14 02:01:20;;;;;;;13.00;9.38;;;13.10;38.70;;;;;;5067027;28;34351;-77
2022/04/14 02:03:46;;;;;;;13.25;8.98;;;13.00;38.60;;;;;;5066420;28;35759;-76
2022/04/14 02:06:13;;;;;;;16.73;10.10;;;12.90;38.70;;;;;;5049666;28;34149;-76
2022/04/14 02:08:39;;;;;;;14.75;9.57;;;12.90;38.80;;;;;;5066439;28;34132;-76
2022/04/14 02:11:07;;;;;;;14.25;9.02;;;12.90;38.80;;;;;;5066775;28;34234;-76
2022/04/14 02:13:34;;;;;;;16.42;10.15;;;12.80;39.00;;;;;;5084123;28;35046;-76
2022/04/14 02:16:00;;;;;;;16.00;9.98;;;12.70;39.00;;;;;;5066670;28;34084;-76
2022/04/14 02:18:26;;;;;;;15.52;10.05;;;12.70;39.00;;;;;;5066496;28;34365;-76
2022/04/14 02:20:52;;;;;;;12.55;8.73;;;12.60;39.00;;;;;;5066419;28;34321;-76
2022/04/14 02:23:18;;;;;;;15.52;9.38;;;12.60;39.00;;;;;;5066204;28;35632;-76
2022/04/14 02:25:45;;;;;;;16.02;9.95;;;12.60;39.10;;;;;;5084543;28;34278;-76
2022/04/14 02:28:13;;;;;;;15.95;9.45;;;12.50;39.20;;;;;;5066373;28;34116;-76
2022/04/14 02:30:39;;;;;;;15.77;9.50;;;12.50;39.20;;;;;;5066061;28;34595;-76
2022/04/14 02:33:05;;;;;;;14.68;9.23;;;12.40;39.30;;;;;;5083962;28;34189;-76
2022/04/14 02:35:31;;;;;;;16.27;10.20;;;12.40;39.40;;;;;;5065861;28;34123;-76
2022/04/14 02:37:57;;;;;;;15.18;9.52;;;12.30;39.50;;;;;;5049337;28;34329;-77
2022/04/14 02:40:25;;;;;;;14.23;9.35;;;12.30;39.50;;;;;;5066078;28;34455;-76
2022/04/14 02:42:54;;;;;;;14.13;9.07;;;12.30;39.70;;;;;;5065503;28;36540;-76
2022/04/14 02:45:22;;;;;;;15.55;9.52;;;12.20;39.50;;;;;;5066003;28;34098;-76
2022/04/14 02:47:48;;;;;;;19.08;9.20;;;12.20;39.70;;;;;;5066061;28;34105;-76
2022/04/14 02:50:14;;;;;;;13.32;8.98;;;12.10;39.70;;;;;;5065646;28;34535;-76
2022/04/14 02:52:40;;;;;;;15.55;9.05;;;12.10;39.70;;;;;;5065997;28;35613;-76
2022/04/14 02:55:07;;;;;;;19.23;9.75;;;12.10;39.90;;;;;;5083949;28;34199;-76
2022/04/14 02:57:32;;;;;;;14.23;9.20;;;12.00;39.90;;;;;;5049151;28;34114;-77
2022/04/14 02:59:59;;;;;;;14.70;9.32;;;12.00;40.10;;;;;;5083675;28;34247;-76
2022/04/14 03:02:25;;;;;;;17.33;9.23;;;12.00;40.30;;;;;;5065832;28;36430;-76
2022/04/14 03:04:51;;;;;;;15.40;9.52;;;11.90;40.70;;;;;;5083525;28;34124;-76
2022/04/14 03:07:17;;;;;;;17.52;9.75;;;11.90;40.80;;;;;;5065842;28;34110;-76
2022/04/14 03:09:43;;;;;;;19.27;10.02;;;11.90;41.00;;;;;;5065844;28;34328;-76
2022/04/14 03:12:09;;;;;;;17.13;10.18;;;11.80;41.00;;;;;;5083198;28;34248;-76
2022/04/14 03:14:35;;;;;;;16.65;9.32;;;11.80;41.00;;;;;;5065892;28;34396;-76
2022/04/14 03:17:01;;;;;;;17.10;9.43;;;11.80;41.10;;;;;;5083790;28;34164;-76
2022/04/14 03:19:27;;;;;;;14.32;9.00;;;11.80;41.20;;;;;;5049153;28;34199;-77
2022/04/14 03:21:54;;;;;;;20.60;9.98;;;11.90;41.20;;;;;;5065483;28;35107;-76
2022/04/14 03:24:20;;;;;;;14.65;9.57;;;11.90;41.30;;;;;;5065777;28;34380;-76
2022/04/14 03:26:45;;;;;;;16.00;9.93;;;11.80;41.20;;;;;;5083856;28;34033;-76
2022/04/14 03:29:11;;;;;;;16.65;9.85;;;11.90;41.30;;;;;;5065520;28;34651;-76
2022/04/14 03:31:38;;;;;;;16.38;9.50;;;11.90;41.20;;;;;;5065276;28;35871;-77
2022/04/14 03:34:04;;;;;;;17.05;10.18;;;11.90;41.30;;;;;;5083390;28;34150;-76
2022/04/14 03:36:29;;;;;;;14.95;10.20;;;11.90;41.40;;;;;;5049026;28;34101;-76
2022/04/14 03:38:55;;;;;;;14.23;9.05;;;11.80;41.50;;;;;;5048987;28;34368;-76
2022/04/14 03:41:21;;;;;;;15.02;9.57;;;11.80;42.20;;;;;;5048695;28;35556;-76
2022/04/14 03:43:47;;;;;;;15.82;10.13;;;11.80;41.50;;;;;;5065798;28;34451;-77
2022/04/14 03:46:15;;;;;;;17.00;9.45;;;11.80;41.60;;;;;;5048587;28;34190;-76
2022/04/14 03:48:42;;;;;;;16.80;9.73;;;11.80;41.80;;;;;;5066170;28;34080;-76
2022/04/14 03:51:09;;;;;;;15.07;9.88;;;11.70;42.00;;;;;;5064711;28;35461;-76
2022/04/14 03:53:35;;;;;;;16.63;10.18;;;11.70;42.30;;;;;;5048968;28;34190;-76
2022/04/14 03:56:01;;;;;;;14.88;8.85;;;11.80;42.30;;;;;;5065281;28;34323;-76
2022/04/14 03:58:27;;;;;;;16.98;9.57;;;11.80;42.30;;;;;;5065325;28;34401;-76
2022/04/14 04:00:53;;;;;;;17.45;9.80;;;11.70;42.30;;;;;;5064621;28;35841;-76
2022/04/14 04:03:19;;;;;;;16.98;9.82;;;11.80;42.40;;;;;;5065072;28;34002;-76
2022/04/14 04:05:45;;;;;;;14.82;9.25;;;11.80;42.40;;;;;;5065572;28;34359;-76
2022/04/14 04:08:11;;;;;;;13.63;8.95;;;11.80;42.40;;;;;;5065388;28;34612;-76
2022/04/14 04:10:37;;;;;;;13.80;9.00;;;11.70;42.60;;;;;;5082926;28;34117;-76
2022/04/14 04:13:03;;;;;;;17.42;9.40;;;11.70;42.70;;;;;;5048235;28;34073;-76
2022/04/14 04:15:29;;;;;;;16.75;8.80;;;11.70;42.80;;;;;;5064933;28;34402;-76
2022/04/14 04:17:55;;;;;;;17.23;9.00;;;11.70;42.90;;;;;;5051614;28;34128;-76
2022/04/14 04:20:21;;;;;;;18.92;9.55;;;11.70;43.00;;;;;;5051634;28;36094;-76
2022/04/14 04:22:47;;;;;;;17.38;9.27;;;11.70;43.10;;;;;;5068716;28;34139;-76
2022/04/14 04:25:13;;;;;;;13.57;8.60;;;11.70;43.00;;;;;;5068170;28;34295;-76
2022/04/14 04:27:39;;;;;;;15.35;8.68;;;11.70;43.10;;;;;;5051457;28;34041;-76
2022/04/14 04:30:07;;;;;;;13.68;8.55;;;11.70;43.20;;;;;;5086036;28;35204;-76
2022/04/14 04:32:33;;;;;;;16.05;8.05;;;11.70;43.20;;;;;;5051628;28;34066;-77
2022/04/14 04:35:01;;;;;;;12.07;7.70;;;11.60;43.10;;;;;;5067997;28;34143;-76
2022/04/14 04:37:27;;;;;;;13.30;8.07;;;11.70;43.10;;;;;;5086267;28;34384;-76
2022/04/14 04:39:53;;;;;;;13.25;8.73;;;11.60;43.00;;;;;;5067652;28;35491;-77
2022/04/14 04:42:19;;;;;;;12.35;8.55;;;11.60;43.10;;;;;;5067957;28;34241;-76
2022/04/14 04:44:44;;;;;;;14.68;8.27;;;11.60;43.10;;;;;;5068364;28;34483;-77
2022/04/14 04:47:10;;;;;;;12.48;8.23;;;11.60;43.10;;;;;;5068267;28;34572;-76
2022/04/14 04:49:36;;;;;;;12.73;7.70;;;11.60;43.40;;;;;;5067707;28;35817;-76
2022/04/14 04:52:02;;;;;;;12.00;7.47;;;11.60;43.30;;;;;;5067798;28;34573;-76
2022/04/14 04:54:28;;;;;;;12.30;7.18;;;11.60;43.30;;;;;;5085522;28;34065;-76
2022/04/14 04:56:54;;;;;;;12.48;8.20;;;11.60;43.30;;;;;;5067639;28;34312;-76
2022/04/14 04:59:20;;;;;;;12.68;7.53;;;11.60;43.40;;;;;;5085871;28;34282;-77
2022/04/14 05:01:46;;;;;;;12.85;7.90;;;11.50;43.50;;;;;;5067863;28;34391;-77
2022/04/14 05:04:12;;;;;;;12.85;7.95;;;11.50;43.60;;;;;;5067602;28;34422;-76
2022/04/14 05:06:39;;;;;;;11.50;7.65;;;11.50;43.60;;;;;;5085838;28;34111;-76
2022/04/14 05:09:05;;;;;;;11.38;7.40;;;11.60;43.50;;;;;;5067287;28;36276;-76
2022/04/14 05:11:32;;;;;;;10.93;6.82;;;11.60;43.50;;;;;;5085856;28;34068;-76
2022/04/14 05:13:58;;;;;;;13.10;7.88;;;11.60;43.40;;;;;;5066868;28;34100;-77
2022/04/14 05:16:24;;;;;;;13.32;7.88;;;11.60;43.40;;;;;;5067516;28;34187;-76
2022/04/14 05:18:50;;;;;;;11.88;7.18;;;11.60;43.40;;;;;;5067494;28;35858;-76
2022/04/14 05:21:16;;;;;;;13.50;7.68;;;11.60;43.50;;;;;;5050677;28;34314;-77
2022/04/14 05:23:42;;;;;;;13.57;7.72;;;11.60;43.60;;;;;;5067396;28;34065;-76
2022/04/14 05:26:09;;;;;;;11.27;7.25;;;11.60;43.60;;;;;;5067184;28;34284;-76
2022/04/14 05:28:35;;;;;;;12.48;7.40;;;11.60;43.60;;;;;;5050056;28;35554;-76
2022/04/14 05:31:01;;;;;;;11.07;7.22;;;11.60;43.70;;;;;;5050676;28;34155;-76
2022/04/14 05:33:27;;;;;;;12.73;7.35;;;11.70;43.90;;;;;;5067297;28;34070;-77
2022/04/14 05:35:53;;;;;;;16.00;7.72;;;11.70;44.10;;;;;;5085188;28;34282;-76
2022/04/14 05:38:19;;;;;;;11.00;7.45;;;11.70;44.10;;;;;;5066838;28;36257;-77
2022/04/14 05:40:46;;;;;;;12.40;6.53;;;11.70;44.10;;;;;;5067049;28;34199;-76
2022/04/14 05:43:21;;;;;;;11.60;6.97;;;11.80;44.00;;;;;;5066978;28;34279;-76
2022/04/14 05:45:48;;;;;;;15.57;6.93;;;11.80;45.30;;;;;;5067143;28;34154;-76
2022/04/14 05:48:16;;;;;;;11.82;7.07;;;11.80;44.60;;;;;;5066682;28;35690;-76
2022/04/14 05:50:43;;;;;;;9.98;6.20;;;11.90;44.00;;;;;;5067099;28;34422;-77
2022/04/14 05:53:10;;;;;;;12.25;7.25;;;12.00;43.90;;;;;;5066457;28;34608;-77
2022/04/14 05:55:36;;;;;;;12.88;8.15;;;12.00;43.90;;;;;;5101486;28;34196;-77
2022/04/14 05:58:04;;;;;;;12.57;7.50;;;12.00;44.00;;;;;;5090848;28;36413;-76
2022/04/14 06:00:34;;;;;;;11.07;7.10;;;12.10;44.10;;;;;;5066434;28;34264;-76
2022/04/14 06:03:01;;;;;;;12.43;7.50;;;12.10;44.40;;;;;;5079090;28;34324;-76
2022/04/14 06:05:28;;;;;;;16.60;6.97;;;12.20;43.80;;;;;;5087464;28;35262;-76
2022/04/14 06:07:55;;;;;;;11.75;6.72;;;12.30;43.80;;;;;;5067204;28;36514;-76
2022/04/14 06:10:22;;;;;;;11.32;6.78;;;12.40;43.70;;;;;;5067112;28;34231;-76
2022/04/14 06:12:49;;;;;;;16.08;6.97;;;12.40;43.50;;;;;;5055250;28;34583;-76
2022/04/14 06:15:15;;;;;;;14.27;7.57;;;12.50;43.50;;;;;;5030245;28;34226;-76
2022/04/14 06:17:42;;;;;;;11.63;7.18;;;12.60;43.60;;;;;;5046286;28;36697;-76
2022/04/14 06:20:12;;;;;;;11.73;7.13;;;12.70;43.50;;;;;;5046122;28;34120;-76
2022/04/14 06:22:39;;;;;;;13.77;7.35;;;12.80;44.50;;;;;;5029754;28;34085;-76
2022/04/14 06:25:06;;;;;;;15.02;7.25;;;12.90;43.30;;;;;;5030133;28;34404;-76
2022/04/14 06:27:33;;;;;;;15.10;7.50;;;13.00;43.10;;;;;;5047624;28;34429;-76
2022/04/14 06:29:59;;;;;;;13.98;8.68;;;13.00;43.00;;;;;;5065549;28;34277;-76
2022/04/14 06:32:25;;;;;;;15.00;9.18;;;13.10;42.80;;;;;;5065995;28;34122;-76
2022/04/14 06:34:51;;;;;;;22.77;8.98;;;13.10;42.80;;;;;;5066252;28;34390;-76
2022/04/14 06:37:17;;;;;;;14.43;8.52;;;13.20;42.60;;;;;;5062442;28;34477;-76
2022/04/14 06:39:42;;;;;;;14.80;8.73;;;13.30;42.60;;;;;;5045599;28;34453;-76
2022/04/14 06:42:08;;;;;;;14.25;8.18;;;13.30;42.50;;;;;;5045700;28;34584;-77
2022/04/14 06:44:34;;;;;;;13.10;8.05;;;13.40;42.30;;;;;;5045711;28;34333;-76
2022/04/14 06:47:00;;;;;;;15.60;8.73;;;13.50;42.30;;;;;;5063855;28;34298;-77
2022/04/14 06:49:26;;;;;;;14.20;7.93;;;13.60;42.20;;;;;;5046556;28;34377;-76
2022/04/14 06:51:52;;;;;;;15.13;8.88;;;13.70;42.10;;;;;;5048971;28;34381;-76
2022/04/14 06:54:18;;;;;;;15.07;8.85;;;13.70;42.00;;;;;;5065847;28;34325;-76
2022/04/14 06:56:44;;;;;;;12.93;8.50;;;13.80;42.00;;;;;;5052801;28;35631;-77
2022/04/14 06:59:10;;;;;;;13.60;8.65;;;13.80;42.00;;;;;;5053355;28;34215;-76
2022/04/14 07:01:36;;;;;;;13.68;8.38;;;13.80;41.80;;;;;;5071014;28;34102;-76
2022/04/14 07:04:01;;;;;;;11.60;7.32;;;13.90;41.90;;;;;;5069132;28;34201;-77
2022/04/14 07:06:28;;;;;;;11.77;7.95;;;14.00;42.00;;;;;;5083058;28;34757;-77
2022/04/14 07:08:54;;;;;;;16.60;8.70;;;14.00;41.80;;;;;;5072778;28;34072;-76
2022/04/14 07:11:20;;;;;;;13.93;7.68;;;14.10;41.80;;;;;;5082498;28;34224;-77
2022/04/14 07:13:46;;;;;;;16.73;8.27;;;14.10;41.60;;;;;;5062685;28;34132;-77
2022/04/14 07:16:12;;;;;;;13.18;8.23;;;14.20;41.40;;;;;;5062056;28;36229;-77
2022/04/14 07:18:39;;;;;;;10.55;7.63;;;14.30;41.30;;;;;;5090466;28;34508;-76
2022/04/14 07:21:05;;;;;;;13.43;7.85;;;14.30;41.20;;;;;;5065617;28;34027;-78
2022/04/14 07:23:31;;;;;;;13.10;8.27;;;14.50;41.10;;;;;;5045376;28;34054;-76
2022/04/14 07:25:57;;;;;;;14.07;7.72;;;14.50;40.90;;;;;;5061836;28;36053;-76
2022/04/14 07:28:23;;;;;;;10.55;6.85;;;14.60;40.60;;;;;;5048456;28;34306;-77
2022/04/14 07:30:49;;;;;;;12.85;8.18;;;14.70;40.50;;;;;;5099153;28;34695;-76
2022/04/14 07:33:15;;;;;;;13.77;7.55;;;14.80;40.30;;;;;;5079735;28;34426;-77
2022/04/14 07:35:41;;;;;;;12.98;7.35;;;14.90;40.20;;;;;;5065622;28;35702;-77
2022/04/14 07:38:08;;;;;;;12.15;8.27;;;15.00;40.00;;;;;;5067342;28;34451;-77
2022/04/14 07:40:33;;;;;;;14.63;8.30;;;15.10;40.00;;;;;;5048425;28;34197;-76
2022/04/14 07:43:01;;;;;;;14.65;7.88;;;15.20;39.90;;;;;;5048552;28;34467;-77
2022/04/14 07:45:28;;;;;;;14.48;7.97;;;15.30;39.70;;;;;;5081565;28;35624;-76
2022/04/14 07:47:54;;;;;;;12.82;8.02;;;15.30;40.40;;;;;;5064902;28;34104;-76
2022/04/14 07:50:21;;;;;;;15.93;8.25;;;15.40;39.90;;;;;;5065089;28;34284;-77
2022/04/14 07:52:50;;;;;;;12.00;7.82;;;15.40;39.80;;;;;;5064425;28;34198;-77
2022/04/14 07:55:23;;;;;;;12.85;8.57;;;15.50;39.80;;;;;;5100220;28;34480;-77
2022/04/14 07:57:51;;;;;;;15.27;8.70;;;15.50;40.20;;;;;;5085346;28;34230;-77
2022/04/14 08:00:17;;;;;;;11.80;7.95;;;15.60;39.50;;;;;;5086835;28;34095;-76
2022/04/14 08:02:59;;;;;;;14.20;8.65;;;15.70;39.30;;;;;;5085550;28;34307;-76
2022/04/14 08:05:31;;;;;;;12.75;7.53;;;15.70;39.20;;;;;;5068187;28;35777;-76
2022/04/14 08:07:57;;;;;;;27.25;19.40;;;15.80;39.20;;;;;;5089606;28;34336;-76
2022/04/14 08:10:23;;;;;;;15.68;8.63;;;15.80;39.00;;;;;;5106941;28;34140;-76
2022/04/14 08:12:49;;;;;;;12.60;7.75;;;15.80;38.60;;;;;;5088674;28;34218;-76
2022/04/14 08:15:15;;;;;;;12.43;7.35;;;15.80;38.60;;;;;;5088650;28;35532;-76
2022/04/14 08:17:43;;;;;;;11.30;7.53;;;15.90;38.50;;;;;;5088823;28;34234;-76
2022/04/14 08:20:11;;;;;;;14.00;7.38;;;15.90;38.50;;;;;;5071631;28;34333;-76
2022/04/14 08:22:54;;;;;;;11.32;7.28;;;16.00;37.90;;;;;;5089100;28;34189;-76
2022/04/14 08:25:24;;;;;;;13.48;7.60;;;16.00;37.00;;;;;;5065517;28;35945;-76
2022/04/14 08:27:51;;;;;;;11.70;7.47;;;16.00;37.50;;;;;;5051633;28;34142;-76
2022/04/14 08:30:20;;;;;;;13.80;8.15;;;16.00;37.50;;;;;;5068242;28;34191;-76
2022/04/14 08:32:48;;;;;;;12.23;7.30;;;16.00;37.30;;;;;;5068101;28;34426;-76
2022/04/14 08:35:15;;;;;;;13.93;7.75;;;16.00;37.20;;;;;;5051126;28;35792;-76
2022/04/14 08:37:43;;;;;;;12.55;7.95;;;16.10;37.30;;;;;;5068861;28;34413;-76
2022/04/14 08:40:11;;;;;;;10.52;6.57;;;16.10;37.30;;;;;;5042304;28;34152;-76
2022/04/14 08:42:41;;;;;;;9.95;6.25;;;16.10;37.30;;;;;;5035839;28;34429;-76
2022/04/14 08:45:10;;;;;;;9.13;6.25;;;16.20;37.30;;;;;;5085830;28;35175;-76
2022/04/14 08:47:39;;;;;;;11.75;6.38;;;16.30;37.30;;;;;;5051823;28;34316;-76
2022/04/14 08:50:09;;;;;;;10.43;7.03;;;16.30;37.20;;;;;;5068026;28;34115;-76
2022/04/14 08:52:37;;;;;;;10.02;7.47;;;16.40;37.00;;;;;;5067921;28;34006;-76
2022/04/14 08:55:06;;;;;;;12.35;7.40;;;16.40;36.80;;;;;;5081193;28;34514;-76
2022/04/14 08:57:33;;;;;;;9.27;5.93;;;16.40;36.90;;;;;;5068002;28;34073;-76
2022/04/14 09:00:00;;;;;;;8.82;6.07;;;16.40;36.70;;;;;;5066070;28;34111;-76
2022/04/14 09:02:27;;;;;;;9.57;6.10;;;16.50;36.30;;;;;;5067645;28;34237;-76
2022/04/14 09:04:56;;;;;;;9.77;5.97;;;16.50;36.20;;;;;;5067304;28;35922;-77
2022/04/14 09:07:22;;;;;;;11.18;6.10;;;16.60;36.00;;;;;;5047102;28;34326;-76
2022/04/14 09:09:48;;;;;;;7.93;5.93;;;16.60;35.80;;;;;;5055892;28;34679;-77
2022/04/14 09:12:15;;;;;;;11.73;5.80;;;16.60;35.50;;;;;;5063396;28;34033;-77
2022/04/14 09:14:41;;;;;;;8.13;5.38;;;16.70;35.50;;;;;;5062329;28;35931;-76
2022/04/14 09:17:09;;;;;;;9.50;5.80;;;16.80;35.30;;;;;;5067963;28;34187;-76
2022/04/14 09:19:37;;;;;;;9.85;5.28;;;16.80;35.00;;;;;;5067524;28;34331;-77
2022/04/14 09:22:07;;;;;;;10.15;5.43;;;16.80;34.40;;;;;;5051472;28;33974;-77
2022/04/14 09:24:49;;;;;;;7.18;4.85;;;16.80;34.20;;;;;;5084674;28;35936;-77
2022/04/14 09:27:32;;;;;;;8.73;4.70;;;16.90;33.40;;;;;;5072724;28;34390;-76
2022/04/14 09:30:00;;;;;;;7.03;4.65;;;16.90;33.30;;;;;;5053535;28;34051;-77
2022/04/14 09:32:31;;;;;;;7.38;4.70;;;16.90;34.00;;;;;;5053962;28;34171;-77
2022/04/14 09:35:00;;;;;;;8.85;4.72;;;16.90;33.90;;;;;;5067186;28;36035;-76
2022/04/14 09:37:27;;;;;;;7.40;4.95;;;16.90;33.60;;;;;;5047720;28;34272;-77
2022/04/14 09:40:00;;;;;;;9.65;4.85;;;17.00;33.60;;;;;;5057499;28;34195;-76
2022/04/14 09:42:29;;;;;;;8.98;5.28;;;17.00;33.70;;;;;;5050739;28;34431;-76
2022/04/14 09:45:15;;;;;;;8.18;4.43;;;17.00;33.40;;;;;;5049820;28;35643;-76
2022/04/14 09:47:41;;;;;;;7.47;4.30;;;17.10;33.50;;;;;;5061111;28;34429;-76
2022/04/14 09:50:25;;;;;;;7.32;4.75;;;17.20;33.50;;;;;;5050355;28;34109;-77
2022/04/14 09:53:07;;;;;;;5.68;4.28;;;17.30;32.40;;;;;;5084935;28;34270;-77
2022/04/14 09:55:35;;;;;;;6.40;4.47;;;17.40;31.80;;;;;;5050076;28;36508;-77
2022/04/14 09:58:18;;;;;;;8.60;4.20;;;17.50;32.70;;;;;;5050413;28;34425;-77
2022/04/14 10:00:46;;;;;;;5.13;3.97;;;17.70;32.30;;;;;;5091700;28;34254;-77
2022/04/14 10:03:16;;;;;;;5.35;4.32;;;17.80;32.50;;;;;;5066468;28;34536;-77
2022/04/14 10:05:44;;;;;;;6.47;4.18;;;17.80;31.70;;;;;;5046039;28;35520;-77
2022/04/14 10:08:13;;;;;;;7.90;4.13;;;17.90;31.60;;;;;;5066792;28;34192;-77
2022/04/14 10:10:43;;;;;;;6.88;4.28;;;17.90;31.30;;;;;;5075832;28;34159;-77
2022/04/14 10:13:12;;;;;;;8.15;4.57;;;18.00;31.10;;;;;;5066394;28;34167;-77
2022/04/14 10:15:48;;;;;;;6.05;3.90;;;18.10;31.10;;;;;;5065115;28;36286;-77
2022/04/14 10:18:16;;;;;;;7.47;4.07;;;18.10;31.00;;;;;;5060144;28;34171;-77
2022/04/14 10:20:44;;;;;;;6.32;4.63;;;18.10;31.00;;;;;;5084588;28;34020;-77
2022/04/14 10:23:12;;;;;;;6.80;4.40;;;18.30;30.80;;;;;;5076635;28;34435;-77
2022/04/14 10:25:38;;;;;;;10.15;4.53;;;18.40;30.50;;;;;;5049601;28;35623;-77
2022/04/14 10:28:07;;;;;;;5.38;3.83;;;18.70;29.90;;;;;;5066359;28;34504;-77
2022/04/14 10:30:33;;;;;;;5.00;3.63;;;19.00;29.10;;;;;;5066269;28;34203;-77
2022/04/14 10:32:59;;;;;;;5.93;3.72;;;19.40;28.60;;;;;;5080993;28;34580;-77
2022/04/14 10:35:27;;;;;;;6.38;3.78;;;19.80;27.90;;;;;;5069594;28;35436;-77
2022/04/14 10:38:11;;;;;;;4.70;3.22;;;20.10;27.30;;;;;;5066144;28;34061;-77
2022/04/14 10:40:42;;;;;;;4.18;2.97;;;20.50;25.90;;;;;;5099732;28;34222;-77
2022/04/14 10:43:09;;;;;;;4.50;2.90;;;20.90;26.10;;;;;;5066450;28;34267;-77
2022/04/14 10:45:51;;;;;;;4.82;2.70;;;20.90;24.50;;;;;;5066148;28;36103;-76
2022/04/14 10:48:34;;;;;;;3.42;2.63;;;21.10;20.40;;;;;;5066332;28;34259;-77
2022/04/14 10:51:20;;;;;;;4.72;3.00;;;21.30;19.90;;;;;;5065478;28;34061;-77
2022/04/14 10:53:49;;;;;;;4.43;2.55;;;21.50;21.50;;;;;;5065462;28;34922;-77
2022/04/14 10:56:42;;;;;;;2.83;2.47;;;21.60;22.30;;;;;;5067295;28;35135;-77
2022/04/14 10:59:11;;;;;;;4.65;2.67;;;21.70;18.90;;;;;;5087744;28;34322;-76
2022/04/14 11:01:54;;;;;;;3.92;2.60;;;21.90;22.50;;;;;;5062056;28;34427;-76
2022/04/14 11:04:29;;;;;;;3.47;2.20;;;22.10;18.60;;;;;;5056119;28;34142;-76
2022/04/14 11:07:01;;;;;;;3.35;2.30;;;22.30;19.60;;;;;;5069611;28;36567;-78
2022/04/14 11:09:45;;;;;;;3.42;2.20;;;22.30;19.40;;;;;;5068134;28;34270;-77
2022/04/14 11:12:14;;;;;;;2.28;2.05;;;22.30;18.10;;;;;;5045624;28;34393;-76
2022/04/14 11:14:53;;;;;;;3.17;2.28;;;22.30;21.00;;;;;;5079223;28;34108;-77
2022/04/14 11:17:53;;;;;;;4.20;2.45;;;22.40;18.80;;;;;;5053179;28;36516;-77
2022/04/14 11:20:45;;;;;;;3.08;2.22;;;22.60;17.50;;;;;;5050820;28;34301;-76
2022/04/14 11:23:28;;;;;;;4.03;2.15;;;22.70;19.00;;;;;;5049843;28;34204;-77
2022/04/14 11:26:04;;;;;;;3.72;2.10;;;22.80;17.00;;;;;;5067608;28;34266;-77
2022/04/14 11:28:33;;;;;;;2.83;2.00;;;23.00;17.30;;;;;;5088418;28;36420;-77
2022/04/14 11:31:04;;;;;;;3.28;1.80;;;23.20;19.10;;;;;;5072553;28;34199;-77
2022/04/14 11:33:36;;;;;;;3.28;2.38;;;23.40;18.80;;;;;;5108120;28;34475;-76
2022/04/14 11:36:15;;;;;;;2.75;1.90;;;23.30;16.40;;;;;;5072791;28;34152;-77
2022/04/14 11:38:59;;;;;;;2.13;1.77;;;23.30;15.80;;;;;;5051989;28;35587;-77
2022/04/14 11:41:35;;;;;;;2.80;2.25;;;23.30;15.10;;;;;;5072390;28;34085;-77
2022/04/14 11:44:04;;;;;;;3.05;1.80;;;23.30;17.60;;;;;;5077539;28;34281;-77
2022/04/14 11:46:31;;;;;;;3.38;1.98;;;23.30;17.80;;;;;;5052573;28;34064;-76
2022/04/14 11:48:59;;;;;;;4.93;2.00;;;23.40;18.70;;;;;;5051676;28;35826;-76
2022/04/14 11:51:27;;;;;;;5.63;2.33;;;23.50;17.70;;;;;;5062472;28;34277;-77
2022/04/14 11:53:55;;;;;;;2.22;1.85;;;23.50;18.40;;;;;;5087758;28;34183;-77
2022/04/14 11:56:23;;;;;;;3.35;2.08;;;23.60;17.80;;;;;;5057207;28;34143;-77
2022/04/14 11:58:50;;;;;;;4.47;1.67;;;23.80;17.60;;;;;;5079750;28;36008;-76
2022/04/14 12:01:16;;;;;;;2.30;1.52;;;24.00;17.40;;;;;;5067827;28;34337;-76
2022/04/14 12:03:43;;;;;;;6.72;2.00;;;24.30;17.20;;;;;;5049683;28;34115;-77
2022/04/14 12:06:14;;;;;;;2.53;1.77;;;24.50;17.10;;;;;;5094954;28;34230;-76
2022/04/14 12:08:40;;;;;;;1.85;1.27;;;24.80;15.90;;;;;;5050079;28;36558;-76
2022/04/14 12:11:16;;;;;;;2.13;1.70;;;25.00;16.20;;;;;;5078703;28;34418;-75
2022/04/14 12:13:43;;;;;;;1.95;1.60;;;25.20;11.60;;;;;;5050807;28;34324;-75
2022/04/14 12:16:11;;;;;;;2.88;1.75;;;25.00;15.40;;;;;;5068117;28;34595;-76
2022/04/14 12:18:39;;;;;;;1.80;1.20;;;25.10;14.90;;;;;;5062331;28;35903;-77
2022/04/14 12:21:06;;;;;;;2.25;1.30;;;25.20;14.90;;;;;;5051548;28;35674;-76
2022/04/14 12:23:33;;;;;;;1.90;1.60;;;25.30;15.10;;;;;;5048566;28;34046;-76
2022/04/14 12:26:03;;;;;;;1.50;1.30;;;25.50;14.70;;;;;;5065267;28;34179;-76
2022/04/14 12:28:29;;;;;;;1.67;1.40;;;25.70;13.30;;;;;;5079887;28;34351;-76
2022/04/14 12:30:55;;;;;;;1.80;1.08;;;25.80;14.20;;;;;;5068197;28;34163;-77
2022/04/14 12:33:28;;;;;;;1.45;0.90;;;26.00;14.20;;;;;;5077235;28;34200;-77
2022/04/14 12:36:09;;;;;;;1.23;1.00;;;26.20;11.00;;;;;;5066546;28;34376;-76
2022/04/14 12:38:44;;;;;;;1.95;1.20;;;26.20;9.50;;;;;;5045132;28;36109;-77
2022/04/14 12:41:17;;;;;;;1.27;0.95;;;26.00;8.80;;;;;;5094921;28;34246;-77
2022/04/14 12:43:47;;;;;;;2.22;1.10;;;25.90;10.00;;;;;;5067930;28;34225;-76